Time;durP1;ratioP1;P1;durP2;ratioP2;P2;SDS_P1;SDS_P2;PMS_P1;PMS_P2;Temp;Humidity;BMP_temperature;BMP_pressure;BME280_temperature;BME280_humidity;BME280_pressure;Samples;Min_cycle;Max_cycle;Signal;HPM_P1;HPM_P2
2023/12/15 00:00:45;;;;;;;49.22;36.67;;;;;;;6.39;80.50;99367.66;4513656;31;34061;-86
2023/12/15 00:03:13;;;;;;;47.88;35.88;;;;;;;6.56;79.70;99364.81;4512718;31;34218;-90
2023/12/15 00:05:41;;;;;;;47.20;35.42;;;;;;;6.58;79.24;99365.72;4513352;31;33261;-89
2023/12/15 00:08:08;;;;;;;50.03;34.70;;;;;;;6.46;80.01;99360.19;4476829;31;33732;-89
2023/12/15 00:10:36;;;;;;;49.70;36.10;;;;;;;6.12;81.49;99373.66;4497455;31;33825;-87
2023/12/15 00:13:04;;;;;;;49.67;35.85;;;;;;;6.46;80.17;99375.63;4497431;31;34033;-91
2023/12/15 00:15:31;;;;;;;48.90;34.38;;;;;;;6.50;80.27;99384.34;4497279;31;33412;-87
2023/12/15 00:17:59;;;;;;;47.25;34.63;;;;;;;6.77;77.97;99381.75;4500433;31;34798;-90
2023/12/15 00:20:27;;;;;;;50.80;35.22;;;;;;;6.60;79.35;99388.97;4507116;31;33635;-87
2023/12/15 00:22:54;;;;;;;48.45;35.58;;;;;;;6.82;78.46;99388.81;4506276;31;34803;-86
2023/12/15 00:25:22;;;;;;;51.42;35.50;;;;;;;6.55;79.47;99393.06;4507387;31;33449;-85
2023/12/15 00:27:49;;;;;;;51.40;36.20;;;;;;;6.56;79.13;99392.28;4505706;31;33802;-86
2023/12/15 00:30:17;;;;;;;50.75;35.92;;;;;;;6.18;80.68;99396.16;4500320;31;34146;-85
2023/12/15 00:32:45;;;;;;;52.95;36.75;;;;;;;6.20;80.65;99405.66;4494500;31;34622;-87
2023/12/15 00:35:13;;;;;;;51.80;36.20;;;;;;;6.43;79.77;99409.00;4501933;31;33305;-86
2023/12/15 00:37:40;;;;;;;48.10;34.45;;;;;;;6.60;78.70;99404.41;4507072;31;33318;-85
2023/12/15 00:40:10;;;;;;;49.38;35.58;;;;;;;6.82;78.09;99405.97;4513389;31;34115;-86
2023/12/15 00:42:56;;;;;;;52.10;35.80;;;;;;;6.74;77.69;99413.47;4486648;31;34810;-87
2023/12/15 00:45:24;;;;;;;;;;;;;;;6.49;78.82;99416.06;4500534;31;34221;-87
2023/12/15 00:47:51;;;;;;;;;;;;;;;6.56;78.51;99423.19;4507028;31;33864;-86
2023/12/15 00:50:18;;;;;;;;;;;;;;;6.47;79.21;99426.31;4511668;31;34336;-93
2023/12/15 00:52:46;;;;;;;;;;;;;;;6.75;77.90;99430.69;4507146;31;33948;-85
2023/12/15 00:55:13;;;;;;;;;;;;;;;6.31;79.71;99431.78;4505829;31;34827;-86
2023/12/15 00:57:41;;;;;;;;;;;;;;;6.80;77.78;99429.09;4499815;31;34574;-92
2023/12/15 01:00:08;;;;;;;;;;;;;;;6.75;76.72;99435.81;4510015;31;34757;-86
2023/12/15 01:02:36;;;;;;;;;;;;;;;6.49;78.86;99439.25;4508379;31;33856;-94
2023/12/15 01:05:03;;;;;;;;;;;;;;;6.27;79.11;99440.22;4511617;31;33235;-88
2023/12/15 01:07:31;;;;;;;;;;;;;;;6.42;78.85;99447.59;4515322;31;34048;-86
2023/12/15 01:09:58;;;;;;;;;;;;;;;6.23;79.62;99451.25;4515282;31;34763;-92
2023/12/15 01:12:26;;;;;;;;;;;;;;;6.45;78.13;99458.00;4515536;31;34298;-87
2023/12/15 01:14:53;;;;;;;;;;;;;;;6.15;80.08;99458.69;4499938;31;33501;-86
2023/12/15 01:17:20;;;;;;;;;;;;;;;6.03;80.57;99451.44;4509909;31;33735;-86
2023/12/15 01:19:48;;;;;;;;;;;;;;;6.13;79.96;99452.59;4496113;31;35236;-86
2023/12/15 01:22:15;;;;;;;;;;;;;;;6.29;78.99;99454.91;4492274;31;33989;-90
2023/12/15 01:24:42;;;;;;;;;;;;;;;6.63;77.40;99461.19;4499786;31;33097;-91
2023/12/15 01:27:10;;;;;;;;;;;;;;;6.57;77.11;99458.41;4514948;31;35132;-87
2023/12/15 01:29:37;;;;;;;;;;;;;;;6.38;77.93;99469.78;4513176;31;34094;-87
2023/12/15 01:32:05;;;;;;;;;;;;;;;6.39;77.93;99473.22;4512344;31;34468;-86
2023/12/15 01:34:32;;;;;;;;;;;;;;;6.56;77.12;99475.56;4508419;31;33570;-87
2023/12/15 01:36:59;;;;;;;;;;;;;;;6.65;76.61;99480.13;4501518;31;33715;-86
2023/12/15 01:39:27;;;;;;;;;;;;;;;6.70;76.08;99483.75;4506422;31;34080;-85
2023/12/15 01:41:54;;;;;;;;;;;;;;;6.79;75.38;99478.91;4500224;31;33793;-85
2023/12/15 01:44:21;;;;;;;;;;;;;;;6.87;74.58;99479.16;4499878;31;33624;-86
2023/12/15 01:46:49;;;;;;;;;;;;;;;6.54;75.67;99487.50;4507091;31;33388;-85
2023/12/15 01:49:16;;;;;;;;;;;;;;;6.48;77.16;99491.59;4504418;31;33902;-86
2023/12/15 01:51:43;;;;;;;;;;;;;;;6.90;74.99;99491.28;4510808;31;34328;-85
2023/12/15 01:54:10;;;;;;;;;;;;;;;7.14;73.53;99491.16;4504986;31;34249;-85
2023/12/15 01:56:38;;;;;;;;;;;;;;;6.17;77.11;99489.63;4499456;31;34042;-87
2023/12/15 01:59:05;;;;;;;;;;;;;;;5.75;80.34;99508.69;4509452;31;34717;-85
2023/12/15 02:01:33;;;;;;;;;;;;;;;6.30;77.23;99494.41;4511935;31;33643;-85
2023/12/15 02:04:00;;;;;;;;;;;;;;;5.75;80.81;99511.25;4510172;31;33224;-85
2023/12/15 02:06:27;;;;;;;;;;;;;;;6.12;79.09;99504.91;4498268;31;34832;-85
2023/12/15 02:08:55;;;;;;;;;;;;;;;6.14;78.28;99503.28;4511078;31;33896;-88
2023/12/15 02:11:22;;;;;;;;;;;;;;;6.37;77.74;99498.94;4505919;31;33702;-84
2023/12/15 02:13:49;;;;;;;;;;;;;;;6.16;79.48;99503.34;4502915;31;33168;-86
2023/12/15 02:16:17;;;;;;;;;;;;;;;6.03;80.03;99507.19;4513130;31;33655;-85
2023/12/15 02:18:45;;;;;;;;;;;;;;;6.17;78.90;99508.53;4503578;31;34120;-85
2023/12/15 02:21:12;;;;;;;;;;;;;;;5.82;81.09;99508.09;4502888;31;34523;-86
2023/12/15 02:23:39;;;;;;;;;;;;;;;5.65;81.75;99511.75;4476416;31;32619;-87
2023/12/15 02:26:07;;;;;;;;;;;;;;;5.87;80.63;99497.97;4511135;31;33831;-85
2023/12/15 02:28:34;;;;;;;;;;;;;;;5.83;80.85;99502.16;4513113;31;33996;-86
2023/12/15 02:31:01;;;;;;;;;;;;;;;5.90;80.79;99494.62;4504758;31;32802;-86
2023/12/15 02:33:29;;;;;;;;;;;;;;;6.09;80.98;99503.09;4509376;31;33880;-85
2023/12/15 02:35:56;;;;;;;;;;;;;;;6.19;80.38;99499.16;4493292;31;33408;-86
2023/12/15 02:38:23;;;;;;;;;;;;;;;5.74;82.28;99517.22;4510522;31;34291;-87
2023/12/15 02:40:51;;;;;;;;;;;;;;;5.97;81.81;99505.25;4507583;31;34466;-87
2023/12/15 02:43:18;;;;;;;;;;;;;;;5.99;80.88;99518.19;4505516;31;34280;-84
2023/12/15 02:45:45;;;;;;;;;;;;;;;5.80;81.22;99535.47;4509264;31;33851;-83
2023/12/15 02:48:13;;;;;;;;;;;;;;;5.78;82.67;99539.66;4502283;31;34000;-84
2023/12/15 02:50:40;;;;;;;;;;;;;;;6.24;80.71;99527.66;4506714;31;34104;-86
2023/12/15 02:53:07;;;;;;;;;;;;;;;6.08;81.10;99526.22;4507427;31;34372;-86
2023/12/15 02:55:35;;;;;;;;;;;;;;;6.58;78.25;99530.56;4496054;31;34120;-83
2023/12/15 02:58:02;;;;;;;;;;;;;;;6.35;79.69;99541.78;4513203;31;34062;-84
2023/12/15 03:00:29;;;;;;;;;;;;;;;6.75;77.63;99538.03;4501697;31;34124;-84
2023/12/15 03:02:57;;;;;;;;;;;;;;;6.77;77.18;99537.22;4511064;31;33591;-85
2023/12/15 03:05:24;;;;;;;;;;;;;;;6.45;78.13;99532.69;4499622;31;34971;-83
2023/12/15 03:07:51;;;;;;;;;;;;;;;6.45;78.24;99548.16;4506998;31;34271;-84
2023/12/15 03:10:19;;;;;;;;;;;;;;;6.37;79.18;99544.44;4495392;31;34129;-86
2023/12/15 03:12:46;;;;;;;;;;;;;;;6.82;76.84;99555.44;4498548;31;33581;-89
2023/12/15 03:15:13;;;;;;;;;;;;;;;6.93;76.52;99559.25;4499355;31;34025;-83
2023/12/15 03:17:41;;;;;;;;;;;;;;;7.12;75.53;99565.87;4511657;31;34438;-89
2023/12/15 03:20:09;;;;;;;;;;;;;;;7.19;75.06;99565.25;4503797;31;33653;-89
2023/12/15 03:22:36;;;;;;;;;;;;;;;7.10;74.55;99558.94;4511150;31;34597;-84
2023/12/15 03:25:04;;;;;;;;;;;;;;;7.03;74.18;99565.59;4489602;31;34107;-87
2023/12/15 03:27:31;;;;;;;;;;;;;;;6.83;75.34;99563.22;4508706;31;32850;-89
2023/12/15 03:29:59;;;;;;;;;;;;;;;7.18;74.59;99571.25;4505060;31;33323;-84
2023/12/15 03:32:26;;;;;;;;;;;;;;;6.50;77.70;99577.50;4492870;31;33179;-86
2023/12/15 03:34:54;;;;;;;;;;;;;;;6.16;79.31;99585.72;4508570;31;35054;-88
2023/12/15 03:37:21;;;;;;;;;;;;;;;6.03;79.68;99589.53;4499696;31;34378;-88
2023/12/15 03:39:49;;;;;;;;;;;;;;;6.39;78.57;99581.41;4503116;31;34058;-85
2023/12/15 03:42:16;;;;;;;;;;;;;;;6.49;78.57;99586.94;4497272;31;32749;-86
2023/12/15 03:44:43;;;;;;;;;;;;;;;6.56;77.49;99586.34;4510655;31;33687;-83
2023/12/15 03:47:10;;;;;;;;;;;;;;;6.40;79.22;99593.44;4498445;31;35039;-84
2023/12/15 03:49:38;;;;;;;;;;;;;;;6.54;77.92;99589.66;4500265;31;33957;-84
2023/12/15 03:52:05;;;;;;;;;;;;;;;6.81;76.90;99587.19;4509194;31;33430;-84
2023/12/15 03:54:32;;;;;;;;;;;;;;;6.37;78.63;99588.22;4511270;31;33040;-83
2023/12/15 03:57:00;;;;;;;;;;;;;;;6.25;79.78;99601.47;4497935;31;33526;-85
2023/12/15 03:59:27;;;;;;;;;;;;;;;6.00;80.54;99592.00;4505854;31;34654;-85
2023/12/15 04:01:54;;;;;;;;;;;;;;;5.79;82.12;99602.28;4505528;31;33237;-85
2023/12/15 04:04:22;;;;;;;;;;;;;;;6.28;79.87;99605.03;4504470;31;34905;-84
2023/12/15 04:06:49;;;;;;;;;;;;;;;5.67;82.07;99602.69;4504864;31;34370;-85
2023/12/15 04:09:16;;;;;;;;;;;;;;;6.03;80.55;99608.44;4508538;31;34966;-85
2023/12/15 04:11:44;;;;;;;;;;;;;;;5.86;80.56;99607.72;4510562;31;33009;-88
2023/12/15 04:14:11;;;;;;;;;;;;;;;6.55;77.99;99609.44;4511313;31;34136;-85
2023/12/15 04:16:39;;;;;;;;;;;;;;;6.37;78.91;99612.25;4488114;31;35096;-91
2023/12/15 04:19:07;;;;;;;;;;;;;;;6.36;77.76;99610.47;4485425;31;33708;-85
2023/12/15 04:21:34;;;;;;;;;;;;;;;5.74;80.78;99609.84;4500685;31;34362;-85
2023/12/15 04:24:02;;;;;;;;;;;;;;;6.07;79.56;99606.84;4512460;31;33530;-84
2023/12/15 04:26:30;;;;;;;;;;;;;;;5.95;79.93;99601.25;4510511;31;33625;-85
2023/12/15 04:28:57;;;;;;;;;;;;;;;5.86;80.65;99607.72;4511403;31;32877;-84
2023/12/15 04:31:25;;;;;;;;;;;;;;;5.52;81.25;99614.94;4512864;31;33875;-85
2023/12/15 04:33:52;;;;;;;;;;;;;;;5.57;81.13;99614.34;4501257;31;34369;-90
2023/12/15 04:36:20;;;;;;;;;;;;;;;5.65;81.54;99634.34;4505108;31;34480;-87
2023/12/15 04:38:48;;;;;;;;;;;;;;;5.45;82.30;99634.41;4493736;31;34420;-90
2023/12/15 04:41:19;;;;;;;;;;;;;;;6.05;79.92;99639.34;4486042;31;33151;-85
2023/12/15 04:43:47;;;;;;;;;;;;;;;5.62;81.62;99641.09;4512730;31;34397;-85
2023/12/15 04:46:30;;;;;;;;;;;;;;;5.98;80.01;99642.50;4492741;31;35137;-87
2023/12/15 04:48:59;;;;;;;;;;;;;;;6.13;79.66;99647.38;4501723;31;32688;-85
2023/12/15 04:51:26;;;;;;;;;;;;;;;6.05;79.45;99654.81;4486309;31;33355;-85
2023/12/15 04:53:54;;;;;;;;;;;;;;;6.27;78.68;99654.81;4499883;31;33453;-85
2023/12/15 04:56:21;;;;;;;;;;;;;;;6.27;78.64;99659.94;4507266;31;35285;-85
2023/12/15 04:58:49;;;;;;;;;;;;;;;6.33;78.14;99667.91;4501946;31;33182;-90
2023/12/15 05:01:16;;;;;;;;;;;;;;;5.72;80.52;99662.94;4509886;31;33312;-84
2023/12/15 05:03:44;;;;;;;;;;;;;;;5.93;80.24;99673.22;4497763;31;33860;-85
2023/12/15 05:06:21;;;;;;;;;;;;;;;6.27;78.58;99667.69;4493582;31;34300;-86
2023/12/15 05:08:50;;;;;;;;;;;;;;;6.00;78.98;99676.91;4494806;31;34392;-85
2023/12/15 05:11:18;;;;;;;;;;;;;;;5.80;79.32;99684.69;4497736;31;34305;-88
2023/12/15 05:13:45;;;;;;;;;;;;;;;6.09;79.10;99674.69;4503911;31;34078;-84
2023/12/15 05:16:13;;;;;;;;;;;;;;;5.74;79.97;99671.59;4490251;31;34190;-90
2023/12/15 05:18:40;;;;;;;;;;;;;;;5.75;80.10;99677.59;4511723;31;34448;-85
2023/12/15 05:21:07;;;;;;;;;;;;;;;5.69;79.79;99685.97;4503973;31;33322;-85
2023/12/15 05:23:37;;;;;;;;;;;;;;;5.77;79.38;99700.00;4501812;31;34826;-85
2023/12/15 05:26:04;;;;;;;;;;;;;;;5.65;80.01;99709.81;4513748;31;34417;-88
2023/12/15 05:28:31;;;;;;;;;;;;;;;5.80;79.62;99710.44;4508737;31;33842;-85
2023/12/15 05:30:59;;;;;;;;;;;;;;;6.05;78.23;99720.03;4505312;31;33613;-84
2023/12/15 05:33:26;;;;;;;;;;;;;;;5.66;79.23;99723.53;4505829;31;34218;-85
2023/12/15 05:35:54;;;;;;;;;;;;;;;6.04;78.33;99732.84;4512913;31;33789;-85
2023/12/15 05:38:22;;;;;;;;;;;;;;;5.79;78.29;99742.09;4507948;31;34435;-86
2023/12/15 05:40:49;;;;;;;;;;;;;;;6.54;75.95;99734.78;4507429;31;34263;-84
2023/12/15 05:43:16;;;;;;;;;;;;;;;6.63;74.71;99746.25;4505227;31;34054;-85
2023/12/15 05:45:44;;;;;;;;;;;;;;;6.31;75.87;99757.09;4505833;31;35173;-86
2023/12/15 05:48:11;;;;;;;;;;;;;;;6.52;74.84;99754.47;4491945;31;34338;-84
2023/12/15 05:50:38;;;;;;;;;;;;;;;6.78;73.69;99770.94;4506593;31;34446;-85
2023/12/15 05:53:06;;;;;;;;;;;;;;;6.81;73.06;99767.56;4504026;31;34918;-84
2023/12/15 05:55:33;;;;;;;;;;;;;;;6.79;72.99;99774.38;4510010;31;34063;-83
2023/12/15 05:58:00;;;;;;;;;;;;;;;6.16;75.18;99765.91;4511092;31;32814;-85
2023/12/15 06:00:28;;;;;;;;;;;;;;;6.18;75.34;99761.72;4508927;31;34482;-81
2023/12/15 06:02:55;;;;;;;;;;;;;;;6.37;73.87;99753.91;4503518;31;33970;-85
2023/12/15 06:05:23;;;;;;;;;;;;;;;6.41;73.98;99767.78;4491567;31;34484;-85
2023/12/15 06:07:50;;;;;;;;;;;;;;;6.30;74.19;99770.78;4507348;31;33792;-91
2023/12/15 06:10:17;;;;;;;;;;;;;;;5.86;76.27;99780.13;4494475;31;33717;-86
2023/12/15 06:12:45;;;;;;;;;;;;;;;6.00;75.58;99785.03;4507860;31;33912;-85
2023/12/15 06:15:12;;;;;;;;;;;;;;;5.88;76.20;99787.06;4509424;31;34075;-85
2023/12/15 06:17:39;;;;;;;;;;;;;;;5.56;76.77;99791.72;4502811;31;33937;-87
2023/12/15 06:20:07;;;;;;;;;;;;;;;5.65;76.49;99797.28;4503957;31;34001;-85
2023/12/15 06:22:35;;;;;;;;;;;;;;;5.58;76.71;99795.25;4509516;31;34207;-84
2023/12/15 06:25:02;;;;;;;;;;;;;;;5.56;77.51;99810.59;4491507;31;34419;-84
2023/12/15 06:27:33;;;;;;;;;;;;;;;5.41;78.04;99819.34;4501057;31;34530;-85
2023/12/15 06:30:00;;;;;;;;;;;;;;;5.51;77.14;99822.38;4512442;31;33046;-88
2023/12/15 06:32:28;;;;;;;;;;;;;;;5.66;75.89;99811.88;4507810;31;33802;-85
2023/12/15 06:34:55;;;;;;;;;;;;;;;5.58;76.80;99820.97;4513481;31;33947;-85
2023/12/15 06:37:22;;;;;;;;;;;;;;;5.32;77.48;99823.28;4502973;31;34182;-85
2023/12/15 06:39:50;;;;;;;;;;;;;;;5.33;77.68;99830.16;4502586;31;34323;-84
2023/12/15 06:42:17;;;;;;;;;;;;;;;5.26;77.97;99843.56;4507732;31;33626;-84
2023/12/15 06:44:46;;;;;;;;;;;;;;;5.06;78.35;99839.22;4504392;31;34290;-85
2023/12/15 06:47:14;;;;;;;;;;;;;;;5.29;78.01;99836.00;4511124;31;35009;-84
2023/12/15 06:49:41;;;;;;;;;;;;;;;5.88;75.23;99846.25;4499530;31;32981;-86
2023/12/15 06:52:09;;;;;;;;;;;;;;;5.50;76.96;99856.66;4505273;31;33683;-91
2023/12/15 06:54:39;;;;;;;;;;;;;;;5.23;77.68;99866.59;4492795;31;33951;-85
2023/12/15 06:57:07;;;;;;;;;;;;;;;5.30;77.25;99866.06;4511572;31;35138;-84
2023/12/15 06:59:34;;;;;;;;;;;;;;;5.42;77.36;99880.25;4502650;31;33975;-85
2023/12/15 07:02:02;;;;;;;;;;;;;;;5.28;77.55;99887.34;4508068;31;34086;-90
2023/12/15 07:04:29;;;;;;;;;;;;;;;5.50;77.14;99895.22;4504511;31;35155;-84
2023/12/15 07:06:56;;;;;;;;;;;;;;;5.61;75.96;99903.41;4511876;31;34323;-86
2023/12/15 07:09:24;;;;;;;;;;;;;;;5.30;77.26;99903.72;4508799;31;33112;-86
2023/12/15 07:11:51;;;;;;;;;;;;;;;5.42;76.69;99918.81;4507636;31;34723;-85
2023/12/15 07:14:18;;;;;;;;;;;;;;;5.50;76.04;99918.38;4513149;31;35018;-85
2023/12/15 07:16:46;;;;;;;;;;;;;;;5.67;76.23;99934.53;4507445;31;33567;-85
2023/12/15 07:19:13;;;;;;;;;;;;;;;5.68;75.61;99931.16;4506504;31;33242;-87
2023/12/15 07:21:40;;;;;;;;;;;;;;;6.05;73.83;99930.22;4504370;31;33746;-86
2023/12/15 07:24:08;;;;;;;;;;;;;;;5.77;75.08;99938.41;4512548;31;33997;-90
2023/12/15 07:26:35;;;;;;;;;;;;;;;6.03;74.15;99937.88;4498542;31;34766;-85
2023/12/15 07:29:02;;;;;;;;;;;;;;;5.80;74.02;99943.69;4511765;31;32725;-86
2023/12/15 07:31:29;;;;;;;;;;;;;;;5.79;74.23;99947.94;4486314;31;34473;-85
2023/12/15 07:33:57;;;;;;;;;;;;;;;5.64;74.71;99952.41;4504187;31;33592;-86
2023/12/15 07:36:25;;;;;;;;;;;;;;;5.76;74.71;99957.25;4512792;31;34865;-85
2023/12/15 07:38:52;;;;;;;;;;;;;;;5.95;74.13;99958.97;4489904;31;34286;-88
2023/12/15 07:41:20;;;;;;;;;;;;;;;5.54;74.91;99969.13;4500923;31;34866;-86
2023/12/15 07:43:47;;;;;;;;;;;;;;;5.64;74.71;99980.69;4509390;31;34205;-86
2023/12/15 07:46:18;;;;;;;;;;;;;;;5.80;73.86;99980.59;4504990;31;35068;-89
2023/12/15 07:48:45;;;;;;;;;;;;;;;5.90;73.65;99981.00;4488292;31;34445;-92
2023/12/15 07:51:16;;;;;;;;;;;;;;;5.45;75.28;99978.09;4504464;31;34019;-91
2023/12/15 07:53:46;;;;;;;;;;;;;;;5.74;74.23;99980.31;4511181;31;34095;-93
2023/12/15 07:56:20;;;;;;;;;;;;;;;5.73;74.39;99982.81;4510848;31;34781;-85
2023/12/15 07:58:49;;;;;;;;;;;;;;;5.97;73.93;99988.22;4488711;31;33258;-89
2023/12/15 08:01:17;;;;;;;;;;;;;;;5.86;73.48;99992.84;4511340;31;34017;-86
2023/12/15 08:03:46;;;;;;;;;;;;;;;6.14;72.65;99996.66;4505535;31;35141;-86
2023/12/15 08:06:14;;;;;;;;;;;;;;;6.26;71.89;100003.25;4486899;31;34501;-87
2023/12/15 08:08:42;;;;;;;;;;;;;;;6.08;71.95;99999.84;4486657;31;33214;-86
2023/12/15 08:11:10;;;;;;;;;;;;;;;6.51;70.99;100012.00;4498095;31;33873;-86
2023/12/15 08:13:37;;;;;;;;;;;;;;;6.20;71.56;100007.22;4510494;31;34165;-86
2023/12/15 08:16:05;;;;;;;;;;;;;;;6.30;71.69;100019.72;4491511;31;34421;-92
2023/12/15 08:18:33;;;;;;;;;;;;;;;5.51;73.85;100030.72;4503617;31;33342;-89
2023/12/15 08:21:00;;;;;;;;;;;;;;;5.79;73.47;100040.56;4510382;31;34274;-86
2023/12/15 08:23:27;;;;;;;;;;;;;;;6.06;71.71;100043.56;4486405;31;34820;-86
2023/12/15 08:25:55;;;;;;;;;;;;;;;5.85;72.39;100048.56;4501543;31;34151;-86
2023/12/15 08:28:23;;;;;;;;;;;;;;;5.49;73.62;100055.50;4500756;31;33736;-86
2023/12/15 08:30:50;;;;;;;;;;;;;;;5.68;73.44;100069.19;4510744;31;33753;-85
2023/12/15 08:33:17;;;;;;;;;;;;;;;5.20;74.88;100074.66;4488837;31;34313;-87
2023/12/15 08:35:45;;;;;;;;;;;;;;;5.85;73.75;100069.16;4500563;31;35068;-85
2023/12/15 08:38:12;;;;;;;;;;;;;;;5.49;74.30;100075.16;4509000;31;32991;-84
2023/12/15 08:40:40;;;;;;;;;;;;;;;5.93;72.83;100071.25;4507184;31;33905;-92
2023/12/15 08:43:07;;;;;;;;;;;;;;;6.16;72.34;100083.47;4500352;31;35331;-86
2023/12/15 08:45:34;;;;;;;;;;;;;;;6.11;72.28;100094.37;4502364;31;34390;-86
2023/12/15 08:48:01;;;;;;;;;;;;;;;6.33;71.30;100097.97;4500648;31;33527;-95
2023/12/15 08:50:29;;;;;;;;;;;;;;;6.16;71.66;100098.91;4503110;31;33965;-86
2023/12/15 08:52:56;;;;;;;;;;;;;;;6.27;71.26;100105.41;4507249;31;34309;-90
2023/12/15 08:55:24;;;;;;;;;;;;;;;6.23;71.41;100106.09;4504890;31;33829;-85
2023/12/15 08:57:51;;;;;;;;;;;;;;;6.09;71.98;100099.44;4505489;31;34492;-85
2023/12/15 09:00:18;;;;;;;;;;;;;;;5.91;71.84;100111.41;4502251;31;34963;-93
2023/12/15 09:02:45;;;;;;;;;;;;;;;6.43;70.58;100117.28;4503402;31;34090;-87
2023/12/15 09:05:13;;;;;;;;;;;;;;;6.32;71.27;100127.09;4507349;31;34769;-86
2023/12/15 09:08:02;;;;;;;;;;;;;;;6.23;70.80;100125.81;4512419;31;34625;-85
2023/12/15 09:10:33;;;;;;;;;;;;;;;6.65;69.82;100128.53;4505492;31;34138;-88
2023/12/15 09:13:02;;;;;;;;;;;;;;;6.18;71.40;100137.62;4502605;31;33831;-89
2023/12/15 09:15:30;;;;;;;;;;;;;;;6.31;70.40;100142.50;4512637;31;34968;-85
2023/12/15 09:17:57;;;;;;;;;;;;;;;5.43;73.53;100155.47;4509126;31;33570;-88
2023/12/15 09:20:24;;;;;;;;;;;;;;;5.58;73.21;100161.38;4506654;31;34133;-89
2023/12/15 09:22:54;;;;;;;;;;;;;;;5.84;73.06;100154.03;4505887;31;34865;-86
2023/12/15 09:25:21;;;;;;;;;;;;;;;5.65;73.14;100156.53;4511258;31;34108;-86
2023/12/15 09:27:48;;;;;;;;;;;;;;;6.37;71.37;100157.34;4502081;31;34245;-95
2023/12/15 09:30:16;;;;;;;;;;;;;;;5.62;72.44;100162.41;4507003;31;34530;-86
2023/12/15 09:32:43;;;;;;;;;;;;;;;5.62;74.00;100163.28;4501092;31;34962;-90
2023/12/15 09:35:11;;;;;;;;;;;;;;;6.23;71.38;100175.63;4513572;31;34425;-86
2023/12/15 09:37:38;;;;;;;;;;;;;;;5.91;72.02;100175.75;4505852;31;34264;-87
2023/12/15 09:40:06;;;;;;;;;;;;;;;5.77;73.05;100188.88;4500277;31;34282;-86
2023/12/15 09:42:33;;;;;;;;;;;;;;;6.39;71.24;100184.06;4494873;31;34119;-86
2023/12/15 09:45:01;;;;;;;;;;;;;;;6.10;71.64;100188.75;4499578;31;34354;-86
2023/12/15 09:47:35;;;;;;;;;;;;;;;6.01;72.15;100183.16;4500649;31;33672;-86
2023/12/15 09:50:03;;;;;;;;;;;;;;;5.75;72.43;100185.31;4503297;31;34074;-84
2023/12/15 09:52:32;;;;;;;;;;;;;;;5.89;72.32;100188.56;4507982;31;34802;-85
2023/12/15 09:54:59;;;;;;;;;;;;;;;6.04;70.98;100198.75;4510557;31;34120;-86
2023/12/15 09:57:27;;;;;;;;;;;;;;;5.93;71.66;100200.81;4496894;31;32979;-86
2023/12/15 09:59:54;;;;;;;;;;;;;;;5.75;71.95;100202.47;4506049;31;35104;-91
2023/12/15 10:02:21;;;;;;;;;;;;;;;5.94;72.37;100202.56;4491294;31;33894;-93
2023/12/15 10:04:50;;;;;;;;;;;;;;;6.17;69.48;100205.34;4499824;31;33861;-89
2023/12/15 10:07:18;;;;;;;;;;;;;;;5.99;70.89;100211.41;4499288;31;33352;-90
2023/12/15 10:09:45;;;;;;;;;;;;;;;6.17;71.12;100208.78;4504344;31;34620;-87
2023/12/15 10:12:12;;;;;;;;;;;;;;;6.27;70.70;100218.72;4492654;31;33757;-87
2023/12/15 10:14:41;;;;;;;;;;;;;;;6.66;68.73;100218.78;4499964;31;34073;-86
2023/12/15 10:17:12;;;;;;;;;;;;;;;6.93;67.98;100220.81;4490378;31;33607;-89
2023/12/15 10:19:39;;;;;;;;;;;;;;;6.49;68.89;100224.88;4496097;31;34318;-87
2023/12/15 10:22:07;;;;;;;;;;;;;;;6.51;68.98;100233.53;4512562;31;34179;-87
2023/12/15 10:24:34;;;;;;;;;;;;;;;6.28;69.50;100235.94;4511641;31;35701;-84
2023/12/15 10:27:03;;;;;;;;;;;;;;;6.28;69.88;100229.91;4512948;31;33241;-87
2023/12/15 10:29:30;;;;;;;;;;;;;;;6.64;68.54;100233.31;4503583;31;33916;-91
2023/12/15 10:31:58;;;;;;;;;;;;;;;6.79;67.56;100228.84;4508625;31;34463;-85
2023/12/15 10:34:26;;;;;;;;;;;;;;;6.58;68.31;100231.31;4493655;31;34973;-86
2023/12/15 10:36:53;;;;;;;;;;;;;;;6.54;68.88;100244.00;4484894;31;34031;-91
2023/12/15 10:39:21;;;;;;;;;;;;;;;6.88;67.24;100243.81;4494544;31;33280;-89
2023/12/15 10:41:51;;;;;;;;;;;;;;;6.70;67.43;100249.03;4500828;31;34295;-88
2023/12/15 10:44:18;;;;;;;;;;;;;;;7.05;66.13;100244.59;4500727;31;34325;-90
2023/12/15 10:46:47;;;;;;;;;;;;;;;7.36;65.67;100251.09;4502631;31;33356;-87
2023/12/15 10:49:15;;;;;;;;;;;;;;;7.62;65.11;100247.91;4498906;31;34080;-88
2023/12/15 10:51:43;;;;;;;;;;;;;;;7.51;65.57;100238.81;4484614;31;34967;-88
2023/12/15 10:54:10;;;;;;;;;;;;;;;7.39;65.42;100246.06;4501064;31;35031;-87
2023/12/15 10:56:38;;;;;;;;;;;;;;;7.65;64.58;100244.53;4506221;31;33498;-87
2023/12/15 10:59:06;;;;;;;;;;;;;;;7.24;65.68;100254.00;4498741;31;34133;-87
2023/12/15 11:01:33;;;;;;;;;;;;;;;7.56;64.65;100245.06;4514775;31;34418;-86
2023/12/15 11:04:01;;;;;;;;;;;;;;;7.59;64.12;100252.94;4495299;31;34004;-87
2023/12/15 11:06:32;;;;;;;;;;;;;;;6.99;65.57;100260.66;4496776;31;34044;-87
2023/12/15 11:09:00;;;;;;;;;;;;;;;7.54;63.81;100262.19;4482543;31;33312;-87
2023/12/15 11:11:28;;;;;;;;;;;;;;;7.67;62.77;100259.28;4482021;31;35064;-87
2023/12/15 11:14:01;;;;;;;;;;;;;;;7.72;63.03;100265.50;4482152;31;34356;-87
2023/12/15 11:16:29;;;;;;;;;;;;;;;7.84;62.21;100267.75;4496684;31;33204;-87
2023/12/15 11:18:57;;;;;;;;;;;;;;;8.05;61.57;100259.97;4483026;31;33823;-88
2023/12/15 11:21:25;;;;;;;;;;;;;;;8.14;61.27;100277.53;4497351;31;35216;-92
2023/12/15 11:24:03;;;;;;;;;;;;;;;7.77;62.54;100287.25;4485839;31;35089;-87
2023/12/15 11:26:31;;;;;;;;;;;;;;;7.80;62.36;100286.47;4500195;31;33734;-89
2023/12/15 11:29:05;;;;;;;;;;;;;;;7.95;62.79;100281.06;4514393;31;34921;-87
2023/12/15 11:31:35;;;;;;;;;;;;;;;7.54;63.99;100288.00;4514250;31;33656;-88
2023/12/15 11:34:03;;;;;;;;;;;;;;;7.77;62.53;100287.25;4511358;31;33773;-88
2023/12/15 11:36:31;;;;;;;;;;;;;;;7.55;63.07;100284.59;4499083;31;33189;-88
2023/12/15 11:38:58;;;;;;;;;;;;;;;7.65;63.43;100299.66;4484271;31;34169;-88
2023/12/15 11:41:25;;;;;;;;;;;;;;;7.64;63.05;100290.12;4484161;31;34123;-88
2023/12/15 11:43:53;;;;;;;;;;;;;;;7.42;64.19;100292.59;4499705;31;33964;-87
2023/12/15 11:46:39;;;;;;;;;;;;;;;7.62;63.00;100290.91;4513458;31;33843;-87
2023/12/15 11:49:08;;;;;;;;;;;;;;;7.50;64.08;100291.22;4499784;31;33647;-88
2023/12/15 11:51:36;;;;;;;;;;;;;;;7.06;64.83;100287.59;4512538;31;34257;-89
2023/12/15 11:54:04;;;;;;;;;;;;;;;7.29;63.06;100289.50;4514464;31;34769;-88
2023/12/15 11:56:32;;;;;;;;;;;;;;;7.23;63.92;100291.78;4499621;31;34132;-89
2023/12/15 11:59:00;;;;;;;;;;;;;;;7.15;64.15;100293.16;4514043;31;34256;-88
2023/12/15 12:01:35;;;;;;;;;;;;;;;7.36;64.24;100297.50;4499930;31;34185;-90
2023/12/15 12:04:02;;;;;;;;;;;;;;;7.41;63.12;100294.31;4484060;31;34374;-89
2023/12/15 12:06:30;;;;;;;;;;;;;;;7.39;62.87;100289.91;4498366;31;33038;-89
2023/12/15 12:08:58;;;;;;;;;;;;;;;7.37;62.75;100292.41;4483739;31;33968;-88
2023/12/15 12:11:25;;;;;;;;;;;;;;;7.27;63.98;100297.97;4496317;31;35260;-91
2023/12/15 12:14:02;;;;;;;;;;;;;;;7.16;63.69;100304.34;4513393;31;33425;-90
2023/12/15 12:16:32;;;;;;;;;;;;;;;7.23;63.21;100303.81;4487175;31;33704;-92
2023/12/15 12:19:00;;;;;;;;;;;;;;;7.39;62.46;100308.84;4499079;31;33101;-88
2023/12/15 12:21:28;;;;;;;;;;;;;;;7.65;62.08;100311.66;4485927;31;34923;-88
2023/12/15 12:23:56;;;;;;;;;;;;;;;7.40;62.68;100312.31;4486102;31;34332;-88
2023/12/15 12:26:23;;;;;;;;;;;;;;;7.26;63.30;100312.56;4513365;31;33669;-88
2023/12/15 12:28:50;;;;;;;;;;;;;;;7.05;64.07;100327.97;4513562;31;33808;-88
2023/12/15 12:31:19;;;;;;;;;;;;;;;7.36;63.32;100324.19;4489193;31;34214;-89
2023/12/15 12:33:47;;;;;;;;;;;;;;;7.46;63.15;100325.47;4499444;31;34309;-88
2023/12/15 12:36:14;;;;;;;;;;;;;;;7.31;63.41;100336.88;4485618;31;33466;-89
2023/12/15 12:38:46;;;;;;;;;;;;;;;7.10;64.34;100350.50;4499735;31;33718;-89
2023/12/15 12:41:15;;;;;;;;;;;;;;;7.04;64.09;100356.25;4510805;31;33520;-88
2023/12/15 12:43:42;;;;;;;;;;;;;;;7.19;62.58;100354.38;4515866;31;34852;-89
2023/12/15 12:46:13;;;;;;;;;;;;;;;7.01;63.78;100350.97;4515845;31;33814;-88
2023/12/15 12:48:43;;;;;;;;;;;;;;;7.41;62.43;100360.50;4515817;31;33635;-88
2023/12/15 12:51:11;;;;;;;;;;;;;;;7.39;62.90;100354.41;4496749;31;34371;-89